createdAt,value
2022-09-21T00:03:30.522Z,11.80
2022-09-21T00:06:49.175Z,9.10
2022-09-21T00:10:15.680Z,9.70
2022-09-21T00:13:34.325Z,7.50
2022-09-21T00:31:05.245Z,7.40
2022-09-21T01:00:16.865Z,13.60
2022-09-21T01:04:04.574Z,12.00
2022-09-21T01:21:47.406Z,23.00
2022-09-21T01:25:07.102Z,20.00
2022-09-21T01:28:39.301Z,26.80
2022-09-21T01:50:13.519Z,26.20
2022-09-21T01:53:31.900Z,24.70
2022-09-21T01:57:05.481Z,27.40
2022-09-21T02:07:59.623Z,28.40
2022-09-21T02:11:40.132Z,32.60
2022-09-21T02:14:24.168Z,31.80
2022-09-21T02:17:56.555Z,33.90
2022-09-21T02:39:45.014Z,31.70
2022-09-21T02:43:23.846Z,30.30
2022-09-21T02:46:25.647Z,22.80
2022-09-21T02:49:45.872Z,25.80
2022-09-21T02:52:58.852Z,30.60
2022-09-21T03:16:03.563Z,27.40
2022-09-21T03:36:31.106Z,28.60
2022-09-21T03:40:11.371Z,44.70
2022-09-21T03:43:30.313Z,25.40
2022-09-21T04:01:00.342Z,25.20
2022-09-21T04:04:30.987Z,24.60
2022-09-21T04:07:33.291Z,22.90
2022-09-21T04:20:42.163Z,24.20
2022-09-21T04:23:50.850Z,23.20
2022-09-21T04:26:31.925Z,27.10
2022-09-21T04:29:05.493Z,28.30
2022-09-21T04:32:13.011Z,28.80
2022-09-21T04:35:46.263Z,32.90
2022-09-21T04:38:42.861Z,25.90
2022-09-21T04:41:32.495Z,23.30
2022-09-21T04:44:20.028Z,34.80
2022-09-21T04:47:23.576Z,27.50
2022-09-21T04:50:51.353Z,29.00
2022-09-21T04:53:52.996Z,28.00
2022-09-21T04:56:53.251Z,28.60
2022-09-21T05:00:08.814Z,24.10
2022-09-21T05:02:51.800Z,34.40
2022-09-21T05:30:02.299Z,45.30
2022-09-21T05:36:51.928Z,50.30
2022-09-21T05:39:25.404Z,62.10
2022-09-21T05:42:16.206Z,49.30
2022-09-21T05:45:06.956Z,27.60
2022-09-21T05:48:24.466Z,35.60
2022-09-21T05:51:47.511Z,53.00
2022-09-21T05:55:08.749Z,36.50
2022-09-21T05:58:27.141Z,53.30
2022-09-21T06:28:37.256Z,31.40
2022-09-21T06:32:25.252Z,27.80
2022-09-21T06:35:20.292Z,32.60
2022-09-21T06:38:17.497Z,34.50
2022-09-21T06:41:48.380Z,30.20
2022-09-21T06:55:46.477Z,31.10
2022-09-21T06:59:25.050Z,30.00
2022-09-21T07:16:07.574Z,25.00
2022-09-21T07:19:37.441Z,23.90
2022-09-21T07:36:34.227Z,18.00
2022-09-21T07:39:28.975Z,14.40
2022-09-21T07:42:38.761Z,13.30
2022-09-21T07:45:52.030Z,14.00
2022-09-21T07:48:45.497Z,16.30
2022-09-21T07:52:13.800Z,14.30
2022-09-21T07:55:36.530Z,18.80
2022-09-21T07:59:08.971Z,17.80
2022-09-21T08:02:47.973Z,20.20
2022-09-21T08:32:51.081Z,12.10
2022-09-21T08:35:42.176Z,11.30
2022-09-21T08:38:51.022Z,12.30
2022-09-21T08:42:24.326Z,19.10
2022-09-21T08:45:17.208Z,9.00
2022-09-21T08:48:37.318Z,9.80
2022-09-21T08:51:12.026Z,7.70
2022-09-21T08:54:28.206Z,9.20
2022-09-21T08:57:05.354Z,6.70
2022-09-21T08:59:43.838Z,6.10
2022-09-21T09:02:37.400Z,8.20
2022-09-21T09:20:13.119Z,6.40
2022-09-21T09:23:49.566Z,6.90
2022-09-21T09:27:15.240Z,5.40
2022-09-21T09:51:33.859Z,6.80
2022-09-21T09:54:37.790Z,6.70
2022-09-21T09:57:33.192Z,6.70
2022-09-21T10:01:15.103Z,8.30
2022-09-21T10:14:06.913Z,7.90
2022-09-21T10:41:01.534Z,8.40
2022-09-21T10:43:54.385Z,8.30
2022-09-21T10:49:42.566Z,10.30
2022-09-21T10:52:19.174Z,10.60
2022-09-21T10:54:57.418Z,12.10
2022-09-21T10:57:43.157Z,12.60
2022-09-21T11:01:17.365Z,13.20
2022-09-21T11:04:53.559Z,17.70
2022-09-21T11:21:43.697Z,15.30
2022-09-21T11:25:42.464Z,16.20
2022-09-21T11:29:11.895Z,15.30
2022-09-21T11:32:37.299Z,14.60
2022-09-21T11:35:59.142Z,12.50
2022-09-21T11:39:01.397Z,14.00
2022-09-21T12:04:22.131Z,10.90
2022-09-21T12:07:24.883Z,10.30
2022-09-21T12:10:49.576Z,10.70
2022-09-21T12:14:16.138Z,9.10
2022-09-21T12:17:13.239Z,9.90
2022-09-21T12:41:55.088Z,8.50
2022-09-21T12:44:35.762Z,7.00
2022-09-21T12:47:32.303Z,5.90
2022-09-21T12:50:48.618Z,4.70
2022-09-21T12:53:32.409Z,4.70
2022-09-21T12:56:30.748Z,4.50
2022-09-21T13:00:14.913Z,3.70
2022-09-21T13:24:33.053Z,3.90
2022-09-21T13:27:08.346Z,5.70
2022-09-21T13:30:40.618Z,3.70
2022-09-21T13:34:02.478Z,3.50
2022-09-21T13:36:38.232Z,2.80
2022-09-21T13:39:40.987Z,2.90
2022-09-21T13:42:36.392Z,3.00
2022-09-21T14:07:28.062Z,3.20
2022-09-21T14:10:32.374Z,1.20
2022-09-21T14:13:47.336Z,2.40
2022-09-21T14:47:21.924Z,2.60
2022-09-21T14:50:23.554Z,3.30
2022-09-21T14:54:23.496Z,2.40
2022-09-21T14:57:52.286Z,4.40
2022-09-21T15:25:48.457Z,4.30
2022-09-21T15:29:18.246Z,4.30
2022-09-21T15:32:01.220Z,5.80
2022-09-21T15:35:52.168Z,7.40
2022-09-21T16:01:48.101Z,2.90
2022-09-21T16:05:21.239Z,4.00
2022-09-21T16:26:40.725Z,1.50
2022-09-21T16:29:38.869Z,1.60
2022-09-21T16:32:48.692Z,1.60
2022-09-21T16:35:52.009Z,9.20
2022-09-21T16:39:14.984Z,5.00
2022-09-21T16:42:47.401Z,3.60
2022-09-21T17:03:36.412Z,11.90
2022-09-21T17:07:17.380Z,11.30
2022-09-21T17:32:07.743Z,21.50
2022-09-21T17:35:22.575Z,20.20
2022-09-21T17:39:00.758Z,18.90
2022-09-21T17:42:27.524Z,16.30
2022-09-21T17:45:50.435Z,15.70
2022-09-21T18:06:34.066Z,13.60
2022-09-21T18:10:04.465Z,14.10
2022-09-21T18:28:10.789Z,18.80
2022-09-21T18:31:38.194Z,21.10
2022-09-21T18:35:29.555Z,19.90
2022-09-21T18:51:09.196Z,18.20
2022-09-21T19:13:07.986Z,30.80
2022-09-21T19:16:50.870Z,28.00
2022-09-21T19:20:32.209Z,24.70
2022-09-21T19:36:10.235Z,26.90
2022-09-21T19:40:01.997Z,21.60
2022-09-21T19:55:12.295Z,22.10
2022-09-21T19:58:59.474Z,27.80
2022-09-21T20:15:10.450Z,19.80
2022-09-21T20:19:07.438Z,20.40
2022-09-21T20:34:41.882Z,17.40
2022-09-21T20:38:22.488Z,12.60
2022-09-21T20:42:09.374Z,16.70
2022-09-21T20:53:17.273Z,16.40
2022-09-21T20:56:31.075Z,12.80
2022-09-21T20:59:52.004Z,15.60
2022-09-21T21:03:11.395Z,14.40
2022-09-21T21:30:15.878Z,13.60
2022-09-21T21:33:43.880Z,14.00
2022-09-21T21:37:15.863Z,11.40
2022-09-21T21:51:14.673Z,14.80
2022-09-21T21:54:25.233Z,13.80
2022-09-21T21:57:29.109Z,13.70
2022-09-21T22:00:39.525Z,11.80
2022-09-21T22:17:02.453Z,13.90
2022-09-21T22:20:41.298Z,11.60
2022-09-21T22:23:46.623Z,12.60
2022-09-21T22:27:42.581Z,12.70
2022-09-21T22:41:04.894Z,19.20
2022-09-21T22:44:26.336Z,17.70
2022-09-21T22:48:14.257Z,21.80
2022-09-21T23:01:57.905Z,27.60
2022-09-21T23:05:45.824Z,25.50
2022-09-21T23:30:21.601Z,23.50
2022-09-21T23:33:07.737Z,22.40
2022-09-21T23:40:01.151Z,18.80
